Time;durP1;ratioP1;P1;durP2;ratioP2;P2;SDS_P1;SDS_P2;PMS_P1;PMS_P2;Temp;Humidity;BMP_temperature;BMP_pressure;BME280_temperature;BME280_humidity;BME280_pressure;Samples;Min_cycle;Max_cycle;Signal;HPM_P1;HPM_P2
2021/11/18 00:01:31;;;;;;;16.03;11.70;;;5.00;99.90;;;5.39;100.00;100968.50;5155294;27;20631;-65
2021/11/18 00:04:00;;;;;;;14.10;10.73;;;4.90;99.90;;;5.57;100.00;100973.66;5154820;27;20247;-65
2021/11/18 00:06:29;;;;;;;18.33;11.87;;;4.90;99.90;;;5.47;100.00;100986.34;5155143;27;20295;-65
2021/11/18 00:08:57;;;;;;;17.47;11.60;;;4.90;99.90;;;5.57;100.00;100979.84;5154968;27;20288;-64
2021/11/18 00:11:25;;;;;;;17.37;11.93;;;4.90;99.90;;;5.55;100.00;100970.31;5154801;27;20292;-65
2021/11/18 00:13:56;;;;;;;20.00;12.30;;;4.90;99.90;;;5.47;100.00;100976.50;5154143;27;20598;-64
2021/11/18 00:16:24;;;;;;;16.33;12.73;;;4.80;99.90;;;5.58;100.00;100978.03;5155229;27;20223;-65
2021/11/18 00:18:52;;;;;;;16.70;12.50;;;4.90;99.90;;;5.64;100.00;100982.69;5154635;27;20284;-65
2021/11/18 00:21:25;;;;;;;21.20;13.37;;;4.90;99.90;;;5.67;100.00;100988.53;5155007;27;20241;-65
2021/11/18 00:23:57;;;;;;;18.70;14.57;;;5.00;99.90;;;5.54;100.00;100992.69;5140403;27;20240;-65
2021/11/18 00:26:28;;;;;;;18.77;14.67;;;4.90;99.90;;;5.64;100.00;100978.19;5134059;27;20261;-65
2021/11/18 00:28:57;;;;;;;17.33;12.67;;;5.00;99.90;;;5.51;100.00;100974.34;5134127;27;20181;-65
2021/11/18 00:31:28;;;;;;;15.53;10.80;;;5.00;99.90;;;5.53;100.00;100981.16;5134052;27;20202;-64
2021/11/18 00:33:57;;;;;;;16.67;11.67;;;5.00;99.90;;;5.63;100.00;100983.69;5133947;27;20202;-64
2021/11/18 00:36:26;;;;;;;16.27;11.80;;;5.00;99.90;;;5.54;100.00;100976.66;5134042;27;20281;-68
2021/11/18 00:38:57;;;;;;;16.30;12.17;;;4.90;99.90;;;5.60;100.00;100984.84;5133768;27;20204;-65
2021/11/18 00:41:25;;;;;;;16.23;10.83;;;5.00;99.90;;;5.65;100.00;100979.03;5133821;27;20548;-65
2021/11/18 00:43:54;;;;;;;18.93;11.80;;;5.00;99.90;;;5.58;100.00;100978.03;5133844;27;20236;-65
2021/11/18 00:46:23;;;;;;;16.23;12.13;;;5.00;99.90;;;5.76;100.00;100982.19;5133702;27;20204;-66
2021/11/18 00:48:51;;;;;;;17.50;12.33;;;5.00;99.90;;;5.82;100.00;100992.22;5133351;27;20206;-65
2021/11/18 00:51:21;;;;;;;17.17;11.90;;;5.10;99.90;;;5.92;100.00;100981.34;5133731;27;20199;-67
2021/11/18 00:53:54;;;;;;;18.30;12.43;;;5.20;99.90;;;5.96;100.00;100988.03;5133131;27;20729;-65
2021/11/18 00:56:26;;;;;;;17.40;13.57;;;5.20;99.90;;;5.94;100.00;100985.53;5133618;27;20185;-65
2021/11/18 00:58:57;;;;;;;15.87;12.10;;;5.20;99.90;;;6.11;100.00;100984.50;5133258;27;20640;-65
2021/11/18 01:01:29;;;;;;;18.40;12.80;;;5.30;99.90;;;6.21;100.00;100984.28;5133332;27;20253;-66
2021/11/18 01:03:59;;;;;;;15.40;12.17;;;5.40;99.90;;;6.25;100.00;100993.66;5133437;27;20190;-63
2021/11/18 01:06:27;;;;;;;15.87;12.43;;;5.50;99.90;;;6.42;100.00;101005.16;5134113;27;20202;-65
2021/11/18 01:08:55;;;;;;;16.23;12.40;;;5.60;99.90;;;6.40;100.00;101004.47;5133401;27;20203;-66
2021/11/18 01:11:30;;;;;;;15.57;12.00;;;5.60;99.90;;;6.45;100.00;101010.16;5133826;27;20581;-66
2021/11/18 01:13:59;;;;;;;15.00;11.10;;;5.60;99.90;;;6.43;100.00;101015.66;5133186;27;20275;-65
2021/11/18 01:16:32;;;;;;;16.67;11.93;;;5.60;99.90;;;6.34;100.00;101024.75;5133344;27;20245;-64
2021/11/18 01:19:00;;;;;;;15.50;11.20;;;5.60;99.90;;;6.25;100.00;101023.09;5133379;27;20237;-65
2021/11/18 01:21:29;;;;;;;15.90;11.57;;;5.60;99.90;;;6.28;100.00;101028.09;5133192;27;20571;-62
2021/11/18 01:23:57;;;;;;;14.87;10.97;;;5.60;99.90;;;6.05;100.00;101014.56;5147825;27;20197;-61
2021/11/18 01:26:26;;;;;;;14.40;10.53;;;5.50;99.90;;;6.04;100.00;101023.63;5159457;27;20284;-63
2021/11/18 01:28:54;;;;;;;15.93;11.27;;;5.40;99.90;;;6.05;100.00;101027.94;5160778;27;20559;-61
2021/11/18 01:31:23;;;;;;;13.80;10.77;;;5.40;99.90;;;5.87;100.00;101027.31;5160823;27;20291;-62
2021/11/18 01:33:51;;;;;;;15.23;11.30;;;5.40;99.90;;;5.87;100.00;101027.31;5160583;27;20197;-63
2021/11/18 01:36:19;;;;;;;15.33;11.77;;;5.30;99.90;;;5.88;100.00;101028.16;5160307;27;20744;-62
2021/11/18 01:38:48;;;;;;;16.33;11.97;;;5.30;99.90;;;6.00;100.00;101026.81;5160561;27;20284;-63
2021/11/18 01:41:20;;;;;;;17.23;12.40;;;5.30;99.90;;;6.17;100.00;101026.59;5160664;27;20221;-63
2021/11/18 01:43:54;;;;;;;16.77;12.57;;;5.40;99.90;;;6.21;100.00;101027.09;5160426;27;20630;-62
2021/11/18 01:46:26;;;;;;;16.50;12.50;;;5.50;99.90;;;6.08;100.00;101032.13;5160721;27;20219;-62
2021/11/18 01:48:55;;;;;;;22.10;13.00;;;5.50;99.90;;;6.28;100.00;101025.41;5160592;27;20280;-61
2021/11/18 01:51:29;;;;;;;16.73;12.30;;;5.50;99.90;;;6.12;100.00;101026.28;5160560;27;20284;-63
2021/11/18 01:53:59;;;;;;;17.93;11.40;;;5.50;99.90;;;6.07;100.00;101031.28;5160452;27;20273;-63
2021/11/18 01:56:31;;;;;;;15.13;11.70;;;5.50;99.90;;;5.96;100.00;101041.50;5160424;27;20218;-62
2021/11/18 01:59:09;;;;;;;16.00;11.77;;;5.50;99.90;;;5.87;100.00;101031.81;5160514;27;20292;-63
2021/11/18 02:01:38;;;;;;;15.47;11.83;;;5.40;99.90;;;6.03;100.00;101042.50;5160211;27;20647;-62
2021/11/18 02:04:11;;;;;;;15.37;11.13;;;5.40;99.90;;;6.07;100.00;101033.16;5160165;27;20289;-62
2021/11/18 02:06:46;;;;;;;16.13;11.67;;;5.40;99.90;;;6.04;100.00;101041.50;5160270;27;20175;-62
2021/11/18 02:09:18;;;;;;;15.73;12.00;;;5.40;99.90;;;6.05;100.00;101027.13;5160042;27;20184;-61
2021/11/18 02:11:49;;;;;;;17.50;12.00;;;5.40;99.90;;;6.11;100.00;101035.31;5160415;27;20285;-61
2021/11/18 02:14:26;;;;;;;17.20;11.77;;;5.40;99.90;;;6.10;100.00;101044.34;5160297;27;20189;-62
2021/11/18 02:16:57;;;;;;;18.70;11.23;;;5.40;99.90;;;6.04;100.00;101044.16;5160526;27;20189;-61
2021/11/18 02:19:25;;;;;;;17.33;12.80;;;5.40;99.90;;;6.09;100.00;101041.81;5160093;27;20232;-61
2021/11/18 02:21:55;;;;;;;18.43;12.97;;;5.40;99.90;;;5.97;100.00;101048.53;5159824;27;20826;-62
2021/11/18 02:24:30;;;;;;;18.90;12.60;;;5.40;99.90;;;5.94;100.00;101051.53;5141551;27;20293;-61
2021/11/18 02:26:58;;;;;;;18.63;12.03;;;5.40;99.90;;;5.99;100.00;101047.34;5139630;27;20193;-62
2021/11/18 02:29:27;;;;;;;18.57;13.13;;;5.30;99.90;;;5.91;100.00;101042.03;5139385;27;20290;-62
2021/11/18 02:32:03;;;;;;;21.70;13.20;;;5.30;99.90;;;5.95;100.00;101038.00;5139271;27;20797;-61
2021/11/18 02:34:45;;;;;;;20.87;12.10;;;5.30;99.90;;;5.88;100.00;101045.03;5139383;27;20213;-61
2021/11/18 02:37:15;;;;;;;18.80;12.70;;;5.30;99.90;;;5.86;100.00;101051.53;5136795;27;20273;-62
2021/11/18 02:39:44;;;;;;;19.23;13.17;;;5.30;99.90;;;5.78;100.00;101054.19;5136162;27;20285;-62
2021/11/18 02:42:14;;;;;;;20.73;11.67;;;5.20;99.90;;;5.75;100.00;101052.66;5136129;27;20334;-61
2021/11/18 02:44:44;;;;;;;17.80;11.83;;;5.20;99.90;;;5.84;100.00;101059.72;5135994;27;20273;-61
2021/11/18 02:47:13;;;;;;;17.03;12.03;;;5.20;99.90;;;5.75;100.00;101049.19;5135595;27;20785;-61
2021/11/18 02:49:44;;;;;;;17.77;12.37;;;5.20;99.90;;;5.70;100.00;101046.19;5135934;27;20289;-61
2021/11/18 02:52:18;;;;;;;17.83;12.67;;;5.20;99.90;;;5.81;100.00;101046.69;5135794;27;20569;-61
2021/11/18 02:54:47;;;;;;;15.33;11.87;;;5.20;99.90;;;5.95;100.00;101058.56;5135564;27;20212;-62
2021/11/18 02:57:15;;;;;;;19.07;12.23;;;5.20;99.90;;;5.84;100.00;101062.41;5135702;27;20272;-62
2021/11/18 02:59:43;;;;;;;17.50;11.97;;;5.20;99.90;;;5.99;100.00;101067.91;5135597;27;20252;-62
2021/11/18 03:02:12;;;;;;;19.00;12.17;;;5.20;99.90;;;5.84;100.00;101065.06;5135326;27;20244;-61
2021/11/18 03:04:40;;;;;;;16.43;11.30;;;5.20;99.90;;;5.93;100.00;101066.75;5135406;27;20210;-62
2021/11/18 03:07:09;;;;;;;19.37;12.80;;;5.20;99.90;;;5.99;100.00;101075.94;5135537;27;20575;-60
2021/11/18 03:09:38;;;;;;;19.07;12.27;;;5.20;99.90;;;5.95;100.00;101071.94;5135585;27;20290;-63
2021/11/18 03:12:07;;;;;;;17.53;12.10;;;5.20;99.90;;;5.85;100.00;101076.63;5135512;27;20244;-62
2021/11/18 03:14:35;;;;;;;22.13;12.73;;;5.20;99.90;;;5.86;100.00;101076.44;5135400;27;20285;-62
2021/11/18 03:17:04;;;;;;;19.70;13.90;;;5.20;99.90;;;5.92;100.00;101082.94;5135378;27;20222;-61
2021/11/18 03:19:32;;;;;;;17.33;12.47;;;5.20;99.90;;;5.97;100.00;101077.97;5135134;27;20317;-61
2021/11/18 03:22:00;;;;;;;17.17;12.20;;;5.30;99.90;;;5.90;100.00;101075.09;5135069;27;20300;-62
2021/11/18 03:24:28;;;;;;;17.10;12.67;;;5.30;99.90;;;5.96;100.00;101081.63;5154732;27;20205;-62
2021/11/18 03:26:58;;;;;;;14.00;11.63;;;5.30;99.90;;;5.83;100.00;101090.16;5155701;27;20203;-62
2021/11/18 03:29:27;;;;;;;16.73;12.17;;;5.30;99.90;;;5.87;100.00;101095.97;5155503;27;20291;-62
2021/11/18 03:31:55;;;;;;;14.97;10.67;;;5.30;99.90;;;6.01;100.00;101082.78;5155785;27;20288;-61
2021/11/18 03:34:29;;;;;;;18.90;11.03;;;5.30;99.90;;;6.10;100.00;101086.31;5155807;27;20228;-62
2021/11/18 03:36:58;;;;;;;15.60;10.33;;;5.40;99.90;;;6.15;100.00;101079.47;5155272;27;20652;-62
2021/11/18 03:39:28;;;;;;;17.17;10.87;;;5.40;99.90;;;6.04;100.00;101084.28;5155694;27;20284;-61
2021/11/18 03:42:01;;;;;;;14.40;9.97;;;5.40;99.90;;;6.06;100.00;101090.31;5155646;27;20296;-62
2021/11/18 03:44:30;;;;;;;13.70;9.70;;;5.40;99.90;;;6.03;100.00;101098.66;5155263;27;20687;-60
2021/11/18 03:47:02;;;;;;;16.57;11.77;;;5.40;99.90;;;6.24;100.00;101088.28;5155537;27;20225;-61
2021/11/18 03:49:31;;;;;;;17.30;11.40;;;5.40;99.90;;;6.40;100.00;101088.28;5154390;27;20205;-62
2021/11/18 03:52:03;;;;;;;16.97;10.70;;;5.60;99.90;;;6.34;100.00;101090.78;5155321;27;20204;-60
2021/11/18 03:54:33;;;;;;;16.67;11.50;;;5.60;99.90;;;6.44;100.00;101080.75;5155544;27;20272;-61
2021/11/18 03:57:04;;;;;;;18.50;12.10;;;5.60;99.90;;;6.43;100.00;101077.22;5155290;27;20315;-62
2021/11/18 03:59:36;;;;;;;14.63;10.87;;;5.60;99.90;;;6.25;100.00;101092.63;5155097;27;20593;-61
2021/11/18 04:02:06;;;;;;;15.20;10.87;;;5.60;99.90;;;6.38;100.00;101092.09;5155293;27;20289;-61
2021/11/18 04:04:39;;;;;;;13.07;9.37;;;5.60;99.90;;;6.36;100.00;101084.25;5154831;27;20189;-60
2021/11/18 04:07:10;;;;;;;14.17;9.87;;;5.60;99.90;;;6.27;100.00;101081.78;5155130;27;20268;-61
2021/11/18 04:09:39;;;;;;;17.77;11.27;;;5.60;99.90;;;6.22;100.00;101076.94;5155177;27;20217;-61
2021/11/18 04:12:12;;;;;;;16.97;10.77;;;5.50;99.90;;;6.09;100.00;101072.09;5154799;27;20240;-62
2021/11/18 04:14:41;;;;;;;16.47;10.27;;;5.50;99.90;;;6.14;100.00;101071.56;5154758;27;20660;-62
2021/11/18 04:17:11;;;;;;;13.27;9.80;;;5.50;99.90;;;6.03;100.00;101090.66;5154859;27;20328;-61
2021/11/18 04:19:41;;;;;;;17.53;10.63;;;5.50;99.90;;;6.17;100.00;101096.16;5154785;27;20316;-61
2021/11/18 04:22:10;;;;;;;14.33;9.63;;;5.50;99.90;;;6.06;100.00;101101.00;5154327;27;20894;-61
2021/11/18 04:24:42;;;;;;;12.47;9.90;;;5.50;99.90;;;6.03;100.00;101090.66;5154712;27;20565;-61
2021/11/18 04:27:13;;;;;;;14.10;10.27;;;5.50;99.90;;;6.05;100.00;101099.34;5154565;27;20285;-61
2021/11/18 04:29:41;;;;;;;14.57;10.37;;;5.50;99.90;;;6.09;100.00;101096.16;5154419;27;20327;-61
2021/11/18 04:32:14;;;;;;;16.27;10.10;;;5.50;99.90;;;6.24;100.00;101090.94;5154280;27;20292;-62
2021/11/18 04:34:43;;;;;;;16.57;10.60;;;5.50;99.90;;;6.21;100.00;101091.28;5154197;27;20182;-62
2021/11/18 04:37:13;;;;;;;14.50;9.87;;;5.50;99.90;;;6.10;100.00;101088.97;5154347;27;20311;-60
2021/11/18 04:39:42;;;;;;;15.73;10.13;;;5.50;99.90;;;6.15;100.00;101089.31;5154486;27;20248;-61
2021/11/18 04:42:14;;;;;;;15.73;11.37;;;5.50;99.90;;;6.26;100.00;101096.16;5154584;27;20230;-61
2021/11/18 04:44:43;;;;;;;20.27;11.07;;;5.60;99.90;;;6.45;100.00;101091.28;5154389;27;20285;-61
2021/11/18 04:47:12;;;;;;;15.27;10.53;;;5.60;99.90;;;6.31;100.00;101094.63;5154071;27;20861;-62
2021/11/18 04:49:44;;;;;;;16.83;10.23;;;5.70;99.90;;;6.24;100.00;101093.63;5154212;27;20201;-62
2021/11/18 04:52:14;;;;;;;13.97;9.90;;;5.60;99.90;;;6.29;100.00;101095.81;5154150;27;20269;-62
2021/11/18 04:54:42;;;;;;;14.47;10.53;;;5.70;99.90;;;6.33;100.00;101102.47;5154229;27;20202;-62
2021/11/18 04:57:11;;;;;;;16.47;9.87;;;5.70;99.90;;;6.22;100.00;101101.00;5153903;27;20311;-62
2021/11/18 04:59:39;;;;;;;15.37;9.77;;;5.60;99.90;;;6.29;100.00;101104.69;5153416;27;20206;-61
2021/11/18 05:02:08;;;;;;;15.47;10.30;;;5.70;99.90;;;6.23;100.00;101097.31;5154102;27;20201;-62
2021/11/18 05:04:37;;;;;;;14.93;9.90;;;5.60;99.90;;;6.30;100.00;101092.97;5153971;27;20205;-61
2021/11/18 05:07:05;;;;;;;13.30;9.67;;;5.60;99.90;;;6.27;100.00;101098.66;5153962;27;20225;-61
2021/11/18 05:09:33;;;;;;;14.70;9.03;;;5.60;99.90;;;6.36;100.00;101097.63;5153712;27;20693;-61
2021/11/18 05:12:01;;;;;;;12.93;9.93;;;5.70;99.90;;;6.27;100.00;101092.47;5154081;27;20207;-62
2021/11/18 05:14:31;;;;;;;15.00;9.80;;;5.70;99.90;;;6.22;100.00;101098.34;5153988;27;20198;-61
2021/11/18 05:16:59;;;;;;;15.07;10.37;;;5.60;99.90;;;6.21;100.00;101104.66;5153945;27;20253;-61
2021/11/18 05:19:27;;;;;;;15.37;10.37;;;5.60;99.90;;;6.41;100.00;101097.97;5153489;27;20708;-61
2021/11/18 05:21:55;;;;;;;15.93;11.23;;;5.70;99.90;;;6.34;100.00;101106.84;5154033;27;20207;-61
2021/11/18 05:24:25;;;;;;;19.00;12.10;;;5.70;99.90;;;6.41;100.00;101108.66;5153881;27;20291;-63
2021/11/18 05:26:53;;;;;;;17.47;11.47;;;5.60;99.90;;;6.44;100.00;101108.34;5153832;27;20288;-61
2021/11/18 05:29:21;;;;;;;19.17;10.47;;;5.70;99.90;;;6.33;100.00;101116.72;5153734;27;20289;-61
2021/11/18 05:31:50;;;;;;;15.33;9.73;;;5.70;99.90;;;6.42;100.00;101123.72;5153694;27;20288;-61
2021/11/18 05:34:19;;;;;;;16.77;9.70;;;5.70;99.90;;;6.31;100.00;101115.22;5153669;27;20189;-62
2021/11/18 05:36:47;;;;;;;15.93;10.13;;;5.70;99.90;;;6.37;100.00;101118.06;5153106;27;20767;-61
2021/11/18 05:39:16;;;;;;;15.07;9.40;;;5.70;99.90;;;6.32;100.00;101125.75;5153546;27;20221;-61
2021/11/18 05:41:44;;;;;;;14.57;9.60;;;5.70;99.90;;;6.41;100.00;101123.91;5153659;27;20250;-61
2021/11/18 05:44:12;;;;;;;16.00;9.83;;;5.70;99.90;;;6.32;100.00;101131.09;5153579;27;20201;-61
2021/11/18 05:46:40;;;;;;;13.80;9.67;;;5.70;99.90;;;6.38;100.00;101130.41;5154197;27;20221;-61
2021/11/18 05:49:09;;;;;;;13.80;9.07;;;5.70;99.90;;;6.39;100.00;101136.59;5154207;27;20462;-61
2021/11/18 05:51:37;;;;;;;15.50;9.63;;;5.60;99.90;;;6.29;100.00;101128.78;5153819;27;20911;-60
2021/11/18 05:54:08;;;;;;;12.57;9.60;;;5.70;99.90;;;6.30;100.00;101133.09;5153798;27;20201;-61
2021/11/18 05:56:38;;;;;;;14.03;10.00;;;5.70;99.90;;;6.32;100.00;101136.44;5153830;27;20689;-62
2021/11/18 05:59:08;;;;;;;19.60;10.97;;;5.70;99.90;;;6.22;100.00;101133.13;5153843;27;20279;-61
2021/11/18 06:01:37;;;;;;;14.30;9.80;;;5.60;99.90;;;6.11;100.00;101141.47;5153844;27;20221;-62
2021/11/18 06:04:09;;;;;;;15.83;10.70;;;5.50;99.90;;;6.08;100.00;101139.13;5154386;27;20250;-61
2021/11/18 06:06:39;;;;;;;16.93;11.03;;;5.60;99.90;;;6.16;100.00;101142.63;5153922;27;20182;-61
2021/11/18 06:09:08;;;;;;;16.97;10.73;;;5.50;99.90;;;6.19;100.00;101150.31;5153850;27;20184;-61
2021/11/18 06:11:40;;;;;;;17.83;10.73;;;5.50;99.90;;;6.10;100.00;101151.34;5153759;27;20237;-61
2021/11/18 06:14:08;;;;;;;18.03;10.40;;;5.50;99.90;;;6.13;100.00;101153.69;5157513;27;20194;-61
2021/11/18 06:16:37;;;;;;;14.90;10.47;;;5.50;99.90;;;6.17;100.00;101151.50;5157429;27;20863;-62
2021/11/18 06:19:06;;;;;;;17.13;9.63;;;5.50;99.90;;;6.03;100.00;101157.50;5157417;27;20320;-61
2021/11/18 06:21:42;;;;;;;15.83;9.80;;;5.50;99.90;;;6.09;100.00;101159.50;5157575;27;20215;-62
2021/11/18 06:24:12;;;;;;;18.67;10.80;;;5.50;99.90;;;6.05;100.00;101142.13;5157263;27;20197;-61
2021/11/18 06:26:40;;;;;;;18.00;9.93;;;5.50;99.90;;;5.96;100.00;101156.50;5157523;27;20272;-61
2021/11/18 06:29:09;;;;;;;16.20;10.57;;;5.40;99.90;;;5.92;100.00;101150.63;5157514;27;20197;-62
2021/11/18 06:31:37;;;;;;;13.67;10.37;;;5.40;99.90;;;5.99;100.00;101156.16;5157350;27;20291;-62
2021/11/18 06:34:05;;;;;;;16.03;10.40;;;5.40;99.90;;;6.08;100.00;101156.00;5157424;27;20593;-61
2021/11/18 06:36:33;;;;;;;16.53;10.67;;;5.40;99.90;;;6.22;100.00;101156.34;5157235;27;20288;-62
2021/11/18 06:39:05;;;;;;;20.67;11.97;;;5.40;99.90;;;6.12;100.00;101164.53;5157276;27;20221;-62
2021/11/18 06:41:33;;;;;;;22.47;12.90;;;5.40;99.90;;;6.16;100.00;101148.00;5157060;27;20639;-62
2021/11/18 06:44:01;;;;;;;17.53;10.90;;;5.50;99.90;;;6.25;100.00;101151.50;5157106;27;20224;-62
2021/11/18 06:46:31;;;;;;;19.13;10.93;;;5.50;99.90;;;6.12;100.00;101156.53;5157179;27;20341;-63
2021/11/18 06:49:01;;;;;;;17.83;10.80;;;5.50;99.90;;;6.12;100.00;101154.66;5157213;27;20229;-63
2021/11/18 06:51:29;;;;;;;16.93;9.77;;;5.50;99.90;;;6.11;100.00;101163.69;5157153;27;20209;-62
2021/11/18 06:54:00;;;;;;;15.00;9.10;;;5.50;99.90;;;6.40;100.00;101152.50;5157081;27;20194;-61
2021/11/18 06:56:30;;;;;;;19.53;9.83;;;5.50;99.90;;;6.37;100.00;101162.69;5157168;27;20280;-62
2021/11/18 06:58:58;;;;;;;15.27;9.33;;;5.60;99.90;;;6.15;100.00;101154.34;5157227;27;20323;-64
2021/11/18 07:01:26;;;;;;;20.93;9.57;;;5.60;99.90;;;6.36;100.00;101156.50;5157019;27;20304;-63
2021/11/18 07:03:55;;;;;;;15.90;9.63;;;5.60;99.90;;;6.25;100.00;101162.19;5156108;27;20709;-64
2021/11/18 07:06:25;;;;;;;19.00;9.83;;;5.60;99.90;;;6.10;100.00;101158.50;5156332;27;20201;-62
2021/11/18 07:08:54;;;;;;;17.57;9.63;;;5.50;99.90;;;6.28;100.00;101159.19;5156398;27;20188;-63
2021/11/18 07:11:25;;;;;;;20.10;10.00;;;5.60;99.90;;;6.43;100.00;101165.53;5156169;27;20208;-61
2021/11/18 07:13:55;;;;;;;14.10;9.40;;;5.60;99.90;;;6.40;100.00;101173.06;5155914;27;20675;-61
2021/11/18 07:16:25;;;;;;;17.63;10.53;;;5.70;99.90;;;6.49;100.00;101172.91;5155819;27;20708;-62
2021/11/18 07:18:53;;;;;;;20.40;11.27;;;5.80;99.90;;;6.52;100.00;101177.91;5155423;27;20258;-62
2021/11/18 07:21:24;;;;;;;16.57;9.70;;;5.80;99.90;;;6.78;100.00;101178.53;5155832;27;20192;-61
2021/11/18 07:23:56;;;;;;;16.00;10.03;;;5.90;99.90;;;6.66;100.00;101184.44;5141142;27;20213;-62
2021/11/18 07:26:24;;;;;;;16.23;10.40;;;6.00;99.90;;;6.66;100.00;101179.91;5135147;27;20273;-62
2021/11/18 07:28:54;;;;;;;21.43;11.20;;;6.00;99.90;;;6.78;100.00;101175.03;5134717;27;20230;-61
2021/11/18 07:31:22;;;;;;;20.57;10.50;;;6.00;99.90;;;6.93;100.00;101178.69;5135117;27;20237;-63
2021/11/18 07:33:50;;;;;;;16.00;9.27;;;6.10;99.90;;;6.89;100.00;101185.38;5134588;27;20650;-61
2021/11/18 07:36:18;;;;;;;13.03;8.57;;;6.20;99.90;;;6.91;100.00;101186.91;5134826;27;20224;-60
2021/11/18 07:38:46;;;;;;;18.37;8.67;;;6.20;99.90;;;6.84;100.00;101188.59;5134944;27;20314;-61
2021/11/18 07:41:14;;;;;;;14.27;8.23;;;6.20;99.90;;;7.09;100.00;101192.88;5134793;27;20214;-61
2021/11/18 07:43:46;;;;;;;14.70;9.13;;;6.30;99.90;;;7.02;100.00;101197.25;5134669;27;20202;-63
2021/11/18 07:46:35;;;;;;;15.43;8.57;;;6.40;99.90;;;7.26;100.00;101199.00;5134440;27;20203;-62
2021/11/18 07:49:05;;;;;;;13.77;9.03;;;6.40;99.90;;;7.50;100.00;101198.09;5134599;27;20195;-62
2021/11/18 07:51:34;;;;;;;14.60;8.60;;;6.50;99.90;;;7.59;100.00;101211.28;5134550;27;20297;-61
2021/11/18 07:54:02;;;;;;;16.03;8.57;;;6.70;99.90;;;7.49;100.00;101208.00;5134609;27;20209;-62
2021/11/18 07:56:30;;;;;;;15.50;8.70;;;6.70;99.90;;;7.47;100.00;101215.38;5134655;27;20285;-62
2021/11/18 07:58:59;;;;;;;14.47;8.17;;;6.80;99.90;;;7.53;100.00;101211.13;5134509;27;20309;-62
2021/11/18 08:01:27;;;;;;;14.23;8.37;;;6.70;99.90;;;7.55;100.00;101206.44;5134478;27;20295;-62
2021/11/18 08:03:57;;;;;;;15.60;8.43;;;6.70;99.90;;;7.40;100.00;101209.03;5134639;27;20266;-62
2021/11/18 08:06:29;;;;;;;15.80;8.67;;;6.70;99.90;;;7.47;100.00;101213.50;5133989;27;20542;-61
2021/11/18 08:08:58;;;;;;;15.93;8.53;;;6.60;99.90;;;7.62;100.00;101212.78;5133861;27;20222;-61
2021/11/18 08:11:30;;;;;;;12.23;8.67;;;6.80;99.90;;;7.82;100.00;101205.97;5134179;27;20327;-62
2021/11/18 08:13:59;;;;;;;18.17;8.40;;;6.80;99.90;;;7.88;100.00;101205.28;5133974;27;20187;-62
2021/11/18 08:16:28;;;;;;;12.63;8.20;;;7.00;99.90;;;8.14;100.00;101200.41;5134339;27;20204;-62
2021/11/18 08:18:58;;;;;;;17.23;9.07;;;7.10;99.90;;;8.18;100.00;101216.00;5133781;27;20234;-62
2021/11/18 08:21:27;;;;;;;14.53;8.30;;;7.20;99.90;;;8.19;100.00;101214.97;5134054;27;20209;-61
2021/11/18 08:23:56;;;;;;;18.40;8.77;;;7.30;99.90;;;8.36;100.00;101221.06;5148391;27;20250;-62
2021/11/18 08:26:25;;;;;;;14.23;7.97;;;7.30;99.90;;;8.58;100.00;101222.91;5154577;27;20225;-62
2021/11/18 08:28:55;;;;;;;14.43;7.93;;;7.40;99.90;;;8.54;100.00;101233.19;5154130;27;20198;-61
2021/11/18 08:31:24;;;;;;;11.77;7.73;;;7.50;99.90;;;8.75;100.00;101228.97;5154131;27;20285;-62
2021/11/18 08:33:53;;;;;;;17.13;8.17;;;7.60;99.90;;;8.68;100.00;101230.75;5154459;27;20216;-60
2021/11/18 08:36:23;;;;;;;14.63;7.30;;;7.60;99.90;;;8.64;100.00;101209.59;5154320;27;20282;-62
2021/11/18 08:38:52;;;;;;;14.60;7.93;;;7.60;99.90;;;8.60;100.00;101215.53;5153618;27;20304;-61
2021/11/18 08:41:21;;;;;;;14.63;8.57;;;7.70;99.90;;;8.69;100.00;101225.19;5151934;27;20735;-60
2021/11/18 08:43:53;;;;;;;15.30;8.33;;;7.60;99.90;;;8.69;100.00;101219.81;5133707;27;20738;-60
2021/11/18 08:46:22;;;;;;;15.80;8.57;;;7.70;99.90;;;8.76;100.00;101228.78;5140527;27;20412;-61
2021/11/18 08:48:52;;;;;;;11.87;7.53;;;7.70;99.90;;;8.73;100.00;101228.34;5135944;27;20205;-61
2021/11/18 08:51:23;;;;;;;12.97;7.63;;;7.80;99.90;;;8.88;100.00;101231.91;5149015;27;20873;-59
2021/11/18 08:53:56;;;;;;;13.33;7.97;;;7.80;99.90;;;9.03;100.00;101238.94;5147957;27;20293;-59
2021/11/18 08:56:25;;;;;;;14.10;7.63;;;8.00;99.90;;;9.43;100.00;101243.06;5131190;27;20269;-63
2021/11/18 08:58:58;;;;;;;12.67;7.87;;;8.20;99.90;;;9.65;100.00;101247.53;5131170;27;20245;-60
2021/11/18 09:01:31;;;;;;;11.97;7.87;;;8.40;99.90;;;9.96;100.00;101247.31;5131066;27;20273;-61
2021/11/18 09:04:00;;;;;;;10.47;7.30;;;8.60;99.90;;;10.16;100.00;101248.38;5148094;27;20280;-60
2021/11/18 09:06:31;;;;;;;15.23;8.00;;;8.90;99.90;;;10.20;100.00;101237.03;5151452;27;20293;-60
2021/11/18 09:08:59;;;;;;;14.07;8.10;;;8.90;99.90;;;9.96;100.00;101241.91;5151014;27;20231;-61
2021/11/18 09:11:31;;;;;;;13.20;7.60;;;8.80;99.90;;;9.67;100.00;101257.06;5150900;27;20281;-60
2021/11/18 09:14:01;;;;;;;14.83;8.17;;;8.70;99.90;;;9.61;100.00;101260.50;5150478;27;20276;-64
2021/11/18 09:16:33;;;;;;;13.23;7.80;;;8.70;99.90;;;9.78;100.00;101256.59;5150588;27;20206;-62
2021/11/18 09:19:02;;;;;;;13.37;7.20;;;8.70;99.90;;;10.16;100.00;101245.69;5145202;27;20322;-61
2021/11/18 09:21:32;;;;;;;13.23;7.70;;;8.80;99.90;;;10.40;100.00;101248.03;5129686;27;20290;-60
2021/11/18 09:24:05;;;;;;;13.67;7.67;;;9.10;99.90;;;10.74;100.00;101256.22;5129086;27;20595;-63
2021/11/18 09:26:37;;;;;;;13.00;8.13;;;9.30;99.90;;;10.97;100.00;101259.56;5129140;27;20256;-60
2021/11/18 09:29:06;;;;;;;13.60;8.53;;;9.50;99.90;;;10.84;100.00;101270.22;5129158;28;20548;-60
2021/11/18 09:31:35;;;;;;;12.57;7.83;;;9.60;99.90;;;10.71;100.00;101270.94;5129459;28;20302;-60
2021/11/18 09:34:04;;;;;;;14.10;7.83;;;9.60;99.90;;;10.60;100.00;101270.63;5129088;28;20210;-61
2021/11/18 09:36:33;;;;;;;19.83;8.07;;;9.50;99.90;;;10.47;100.00;101257.03;5129226;28;20234;-64
2021/11/18 09:39:06;;;;;;;15.37;8.43;;;9.40;99.90;;;10.35;100.00;101258.56;5129454;28;20222;-61
2021/11/18 09:41:54;;;;;;;12.07;7.73;;;9.40;99.90;;;10.54;100.00;101263.28;5130463;28;20179;-60
2021/11/18 09:44:48;;;;;;;18.27;8.27;;;9.40;99.90;;;10.50;100.00;101256.63;5130864;27;20279;-62
2021/11/18 09:48:00;;;;;;;14.70;8.77;;;9.50;99.90;;;10.69;100.00;101270.28;5133324;27;20279;-61
2021/11/18 09:50:46;;;;;;;14.10;8.40;;;9.50;99.90;;;10.90;100.00;101258.66;5134377;27;20399;-67
2021/11/18 09:53:31;;;;;;;15.13;8.23;;;9.60;99.90;;;10.86;100.00;101269.00;5134761;27;20183;-66
2021/11/18 09:56:10;;;;;;;14.63;9.00;;;9.80;99.90;;;10.73;100.00;101255.41;5154655;27;20254;-64
2021/11/18 09:59:01;;;;;;;15.10;8.37;;;9.70;99.90;;;10.69;100.00;101251.41;5154773;27;20680;-65
2021/11/18 10:01:58;;;;;;;19.33;8.83;;;9.70;99.90;;;10.40;100.00;101248.03;5154914;27;20184;-64
2021/11/18 10:04:39;;;;;;;14.73;8.33;;;9.50;99.90;;;10.40;100.00;101245.34;5154785;27;20222;-63
2021/11/18 10:07:16;;;;;;;16.03;8.57;;;9.40;99.90;;;10.40;100.00;101242.66;5154850;27;20206;-61
2021/11/18 10:10:00;;;;;;;15.67;7.70;;;9.40;99.90;;;10.28;100.00;101245.03;5155032;27;20174;-60
2021/11/18 10:12:50;;;;;;;16.80;9.27;;;9.40;99.90;;;10.74;100.00;101240.06;5154823;27;20277;-60
2021/11/18 10:15:22;;;;;;;17.50;8.63;;;9.50;99.90;;;10.89;100.00;101232.75;5154298;27;20293;-61
2021/11/18 10:18:01;;;;;;;13.97;8.37;;;9.70;99.90;;;10.85;100.00;101234.16;5154718;27;20182;-61
2021/11/18 10:20:33;;;;;;;17.07;8.53;;;9.70;99.90;;;11.13;100.00;101242.25;5154230;27;20680;-61
2021/11/18 10:23:06;;;;;;;12.57;8.37;;;9.90;99.90;;;10.96;100.00;101244.38;5153985;27;20202;-62